Newport, Canada
Current Conditions -  °F | °C
As of 10:00 AM on Thursday 30 Oct 2014 (Local Time) from CYGP Reporting Station
Few Clouds Few Clouds  
Wind Chill: 39°   Ceiling: Unl
Heat Index: 46°   Visibility: 15mi
Dew Point: 34°   Wind: 17mph
Humidity: 62%   Direction: 290°WNW
Pressure: 29.63"   Gusts: 24mph
Location:  48.27°N, 64.75°W
Report Text: CYGP 301400Z 29015G21KT 250V310 15SM FEW040 08/01 A2963 RMK CU1 SLP033
Loading
Personal Weather Stations






























Interactive Weather Map
Tropical Storm Tracking
New forecast layout! Learn more

10-Day Weather Forecast

Advertisements
Track Severe Weather on mobile